sensor_id;sensor_type;location;lat;lon;timestamp;pressure;altitude;pressure_sealevel;temperature;humidity
71805;BME280;59654;52.216;5.616;2023-08-17T00:00:00;101900.56;;;16.09;90.06
71805;BME280;59654;52.216;5.616;2023-08-17T00:00:36;101905.06;;;16.09;89.89
71805;BME280;59654;52.216;5.616;2023-08-17T00:01:06;101906.94;;;16.07;90.01
71805;BME280;59654;52.216;5.616;2023-08-17T00:01:37;101902.50;;;16.06;89.94
71805;BME280;59654;52.216;5.616;2023-08-17T00:02:08;101907.22;;;16.01;90.07
71805;BME280;59654;52.216;5.616;2023-08-17T00:02:39;101901.06;;;15.99;90.19
71805;BME280;59654;52.216;5.616;2023-08-17T00:03:11;101892.09;;;15.98;90.41
71805;BME280;59654;52.216;5.616;2023-08-17T00:03:42;101900.97;;;16.00;90.50
71805;BME280;59654;52.216;5.616;2023-08-17T00:04:13;101902.88;;;15.98;90.63
71805;BME280;59654;52.216;5.616;2023-08-17T00:04:44;101900.19;;;15.98;90.71
71805;BME280;59654;52.216;5.616;2023-08-17T00:05:14;101901.06;;;15.99;90.65
71805;BME280;59654;52.216;5.616;2023-08-17T00:05:45;101895.69;;;15.99;90.52
71805;BME280;59654;52.216;5.616;2023-08-17T00:06:16;101897.50;;;15.98;90.65
71805;BME280;59654;52.216;5.616;2023-08-17T00:06:47;101893.94;;;15.98;90.55
71805;BME280;59654;52.216;5.616;2023-08-17T00:07:18;101902.06;;;15.96;90.52
71805;BME280;59654;52.216;5.616;2023-08-17T00:07:48;101895.88;;;15.94;90.54
71805;BME280;59654;52.216;5.616;2023-08-17T00:08:19;101894.06;;;15.95;90.85
71805;BME280;59654;52.216;5.616;2023-08-17T00:08:50;101889.59;;;15.94;91.02
71805;BME280;59654;52.216;5.616;2023-08-17T00:09:21;101898.63;;;15.93;90.70
71805;BME280;59654;52.216;5.616;2023-08-17T00:09:52;101898.56;;;15.94;90.94
71805;BME280;59654;52.216;5.616;2023-08-17T00:10:23;101895.94;;;15.93;91.13
71805;BME280;59654;52.216;5.616;2023-08-17T00:10:54;101903.19;;;15.91;90.83
71805;BME280;59654;52.216;5.616;2023-08-17T00:11:24;101890.75;;;15.88;91.11
71805;BME280;59654;52.216;5.616;2023-08-17T00:11:56;101888.88;;;15.90;90.84
71805;BME280;59654;52.216;5.616;2023-08-17T00:12:27;101892.56;;;15.87;90.89
71805;BME280;59654;52.216;5.616;2023-08-17T00:12:57;101891.63;;;15.88;91.18
71805;BME280;59654;52.216;5.616;2023-08-17T00:13:28;101892.56;;;15.87;91.20
71805;BME280;59654;52.216;5.616;2023-08-17T00:13:59;101893.38;;;15.90;91.33
71805;BME280;59654;52.216;5.616;2023-08-17T00:14:30;101894.25;;;15.90;90.91
71805;BME280;59654;52.216;5.616;2023-08-17T00:15:01;101891.56;;;15.90;90.79
71805;BME280;59654;52.216;5.616;2023-08-17T00:15:31;101896.19;;;15.86;90.58
71805;BME280;59654;52.216;5.616;2023-08-17T00:16:02;101897.94;;;15.87;91.37
71805;BME280;59654;52.216;5.616;2023-08-17T00:16:33;101893.44;;;15.88;91.37
71805;BME280;59654;52.216;5.616;2023-08-17T00:17:04;101897.00;;;15.88;91.41
71805;BME280;59654;52.216;5.616;2023-08-17T00:17:35;101895.31;;;15.86;91.38
71805;BME280;59654;52.216;5.616;2023-08-17T00:18:06;101891.81;;;15.84;91.31
71805;BME280;59654;52.216;5.616;2023-08-17T00:18:36;101894.59;;;15.82;91.34
71805;BME280;59654;52.216;5.616;2023-08-17T00:19:07;101892.78;;;15.83;91.74
71805;BME280;59654;52.216;5.616;2023-08-17T00:19:38;101892.69;;;15.84;91.81
71805;BME280;59654;52.216;5.616;2023-08-17T00:20:09;101894.59;;;15.82;91.55
71805;BME280;59654;52.216;5.616;2023-08-17T00:20:40;101887.47;;;15.81;91.55
71805;BME280;59654;52.216;5.616;2023-08-17T00:21:11;101887.47;;;15.81;91.29
71805;BME280;59654;52.216;5.616;2023-08-17T00:21:44;101883.91;;;15.81;91.23
71805;BME280;59654;52.216;5.616;2023-08-17T00:22:15;101887.47;;;15.81;91.05
71805;BME280;59654;52.216;5.616;2023-08-17T00:22:46;101885.56;;;15.83;90.82
71805;BME280;59654;52.216;5.616;2023-08-17T00:23:16;101884.78;;;15.81;91.15
71805;BME280;59654;52.216;5.616;2023-08-17T00:23:47;101879.47;;;15.80;90.96
71805;BME280;59654;52.216;5.616;2023-08-17T00:24:18;101880.53;;;15.76;91.07
71805;BME280;59654;52.216;5.616;2023-08-17T00:24:49;101880.53;;;15.76;91.13
71805;BME280;59654;52.216;5.616;2023-08-17T00:25:19;101885.09;;;15.74;91.46
71805;BME280;59654;52.216;5.616;2023-08-17T00:25:50;101880.53;;;15.76;91.41
71805;BME280;59654;52.216;5.616;2023-08-17T00:26:21;101875.34;;;15.71;91.59
71805;BME280;59654;52.216;5.616;2023-08-17T00:26:52;101886.22;;;15.68;91.06
71805;BME280;59654;52.216;5.616;2023-08-17T00:27:23;101883.63;;;15.67;91.36
71805;BME280;59654;52.216;5.616;2023-08-17T00:27:54;101876.78;;;15.58;91.67
71805;BME280;59654;52.216;5.616;2023-08-17T00:28:24;101886.72;;;15.56;91.90
71805;BME280;59654;52.216;5.616;2023-08-17T00:28:55;101877.91;;;15.52;92.58
71805;BME280;59654;52.216;5.616;2023-08-17T00:29:26;101877.91;;;15.52;91.87
71805;BME280;59654;52.216;5.616;2023-08-17T00:29:57;101878.06;;;15.49;92.07
71805;BME280;59654;52.216;5.616;2023-08-17T00:30:29;101876.25;;;15.50;91.98
71805;BME280;59654;52.216;5.616;2023-08-17T00:31:00;101875.38;;;15.49;91.71
71805;BME280;59654;52.216;5.616;2023-08-17T00:31:31;101878.06;;;15.49;91.80
71805;BME280;59654;52.216;5.616;2023-08-17T00:32:03;101879.88;;;15.49;91.77
71805;BME280;59654;52.216;5.616;2023-08-17T00:32:34;101877.03;;;15.52;91.90
71805;BME280;59654;52.216;5.616;2023-08-17T00:33:05;101881.63;;;15.50;92.04
71805;BME280;59654;52.216;5.616;2023-08-17T00:33:36;101877.03;;;15.52;92.10
71805;BME280;59654;52.216;5.616;2023-08-17T00:34:07;101884.03;;;15.56;92.10
71805;BME280;59654;52.216;5.616;2023-08-17T00:34:38;101878.66;;;15.56;92.14
71805;BME280;59654;52.216;5.616;2023-08-17T00:35:08;101879.72;;;15.52;91.39
71805;BME280;59654;52.216;5.616;2023-08-17T00:35:39;101877.84;;;15.54;91.79
71805;BME280;59654;52.216;5.616;2023-08-17T00:36:10;101877.91;;;15.52;91.51
71805;BME280;59654;52.216;5.616;2023-08-17T00:36:41;101872.69;;;15.49;90.86
71805;BME280;59654;52.216;5.616;2023-08-17T00:37:11;101870.78;;;15.51;92.19
71805;BME280;59654;52.216;5.616;2023-08-17T00:37:42;101877.03;;;15.52;92.64
71805;BME280;59654;52.216;5.616;2023-08-17T00:38:13;101874.69;;;15.44;91.92
71805;BME280;59654;52.216;5.616;2023-08-17T00:38:44;101875.69;;;15.42;91.96
71805;BME280;59654;52.216;5.616;2023-08-17T00:39:15;101878.38;;;15.42;92.39
71805;BME280;59654;52.216;5.616;2023-08-17T00:39:45;101874.75;;;15.43;92.55
71805;BME280;59654;52.216;5.616;2023-08-17T00:40:16;101874.88;;;15.40;91.82
71805;BME280;59654;52.216;5.616;2023-08-17T00:40:47;101877.38;;;15.44;91.90
71805;BME280;59654;52.216;5.616;2023-08-17T00:41:18;101879.13;;;15.45;91.55
71805;BME280;59654;52.216;5.616;2023-08-17T00:41:49;101879.13;;;15.45;91.62
71805;BME280;59654;52.216;5.616;2023-08-17T00:42:20;101884.50;;;15.45;91.25
71805;BME280;59654;52.216;5.616;2023-08-17T00:42:51;101882.63;;;15.47;91.49
71805;BME280;59654;52.216;5.616;2023-08-17T00:43:22;101884.31;;;15.50;91.10
71805;BME280;59654;52.216;5.616;2023-08-17T00:43:53;101880.75;;;15.49;90.89
71805;BME280;59654;52.216;5.616;2023-08-17T00:44:24;101884.22;;;15.51;91.53
71805;BME280;59654;52.216;5.616;2023-08-17T00:44:55;101885.09;;;15.52;90.87
71805;BME280;59654;52.216;5.616;2023-08-17T00:45:26;101885.84;;;15.56;91.48
71805;BME280;59654;52.216;5.616;2023-08-17T00:45:57;101880.47;;;15.56;91.20
71805;BME280;59654;52.216;5.616;2023-08-17T00:46:29;101883.00;;;15.60;91.46
71805;BME280;59654;52.216;5.616;2023-08-17T00:47:01;101882.94;;;15.62;89.95
71805;BME280;59654;52.216;5.616;2023-08-17T00:47:32;101884.75;;;15.61;90.49
71805;BME280;59654;52.216;5.616;2023-08-17T00:48:05;101881.28;;;15.58;90.01
71805;BME280;59654;52.216;5.616;2023-08-17T00:48:38;101887.53;;;15.58;90.78
71805;BME280;59654;52.216;5.616;2023-08-17T00:49:10;101883.94;;;15.59;90.82
71805;BME280;59654;52.216;5.616;2023-08-17T00:49:41;101884.84;;;15.58;90.77
71805;BME280;59654;52.216;5.616;2023-08-17T00:50:13;101883.09;;;15.57;90.62
71805;BME280;59654;52.216;5.616;2023-08-17T00:50:48;101877.63;;;15.60;90.39
71805;BME280;59654;52.216;5.616;2023-08-17T00:51:21;101881.13;;;15.62;90.44
71805;BME280;59654;52.216;5.616;2023-08-17T00:51:54;101880.19;;;15.63;89.95
71805;BME280;59654;52.216;5.616;2023-08-17T00:52:25;101880.06;;;15.66;90.63
71805;BME280;59654;52.216;5.616;2023-08-17T00:52:57;101878.16;;;15.68;90.22
71805;BME280;59654;52.216;5.616;2023-08-17T00:53:31;101878.16;;;15.68;89.82
71805;BME280;59654;52.216;5.616;2023-08-17T00:54:03;101874.59;;;15.68;89.79
71805;BME280;59654;52.216;5.616;2023-08-17T00:54:35;101876.41;;;15.67;89.77
71805;BME280;59654;52.216;5.616;2023-08-17T00:55:06;101875.56;;;15.67;89.52
71805;BME280;59654;52.216;5.616;2023-08-17T00:55:37;101875.56;;;15.67;90.09
71805;BME280;59654;52.216;5.616;2023-08-17T00:56:08;101874.81;;;15.63;89.95
71805;BME280;59654;52.216;5.616;2023-08-17T00:56:40;101875.00;;;15.59;90.01
71805;BME280;59654;52.216;5.616;2023-08-17T00:57:11;101870.50;;;15.59;90.36
71805;BME280;59654;52.216;5.616;2023-08-17T00:57:43;101872.25;;;15.60;90.18
71805;BME280;59654;52.216;5.616;2023-08-17T00:58:15;101870.53;;;15.58;89.76
71805;BME280;59654;52.216;5.616;2023-08-17T00:58:46;101876.78;;;15.58;89.77
71805;BME280;59654;52.216;5.616;2023-08-17T00:59:17;101868.72;;;15.58;90.23
71805;BME280;59654;52.216;5.616;2023-08-17T00:59:49;101876.63;;;15.63;90.23
71805;BME280;59654;52.216;5.616;2023-08-17T01:00:22;101873.94;;;15.63;90.23
71805;BME280;59654;52.216;5.616;2023-08-17T01:00:55;101865.94;;;15.61;90.00
71805;BME280;59654;52.216;5.616;2023-08-17T01:01:26;101870.31;;;15.64;90.00
71805;BME280;59654;52.216;5.616;2023-08-17T01:01:57;101872.94;;;15.65;89.52
71805;BME280;59654;52.216;5.616;2023-08-17T01:02:28;101879.03;;;15.69;88.76
71805;BME280;59654;52.216;5.616;2023-08-17T01:02:59;101870.97;;;15.69;89.28
71805;BME280;59654;52.216;5.616;2023-08-17T01:03:32;101878.09;;;15.70;89.20
71805;BME280;59654;52.216;5.616;2023-08-17T01:04:03;101875.41;;;15.70;89.07
71805;BME280;59654;52.216;5.616;2023-08-17T01:04:34;101878.16;;;15.68;89.21
71805;BME280;59654;52.216;5.616;2023-08-17T01:05:05;101882.59;;;15.69;89.69
71805;BME280;59654;52.216;5.616;2023-08-17T01:05:36;101885.28;;;15.69;89.51
71805;BME280;59654;52.216;5.616;2023-08-17T01:06:09;101879.91;;;15.69;89.49
71805;BME280;59654;52.216;5.616;2023-08-17T01:06:40;101878.03;;;15.71;89.42
71805;BME280;59654;52.216;5.616;2023-08-17T01:07:11;101884.34;;;15.70;89.07
71805;BME280;59654;52.216;5.616;2023-08-17T01:07:41;101881.66;;;15.70;89.33
71805;BME280;59654;52.216;5.616;2023-08-17T01:08:12;101880.78;;;15.70;89.17
71805;BME280;59654;52.216;5.616;2023-08-17T01:08:44;101885.34;;;15.68;89.44
71805;BME280;59654;52.216;5.616;2023-08-17T01:09:16;101877.38;;;15.66;89.45
71805;BME280;59654;52.216;5.616;2023-08-17T01:09:47;101878.31;;;15.65;89.09
71805;BME280;59654;52.216;5.616;2023-08-17T01:10:18;101882.81;;;15.65;89.15
71805;BME280;59654;52.216;5.616;2023-08-17T01:12:09;101876.78;;;15.58;89.71
71805;BME280;59654;52.216;5.616;2023-08-17T01:13:09;101870.59;;;15.56;89.96
71805;BME280;59654;52.216;5.616;2023-08-17T01:13:51;101867.03;;;15.56;89.52
71805;BME280;59654;52.216;5.616;2023-08-17T01:14:53;101870.06;;;15.48;90.01
71805;BME280;59654;52.216;5.616;2023-08-17T01:15:36;101870.13;;;15.46;90.85
71805;BME280;59654;52.216;5.616;2023-08-17T01:16:14;101868.31;;;15.47;91.19
71805;BME280;59654;52.216;5.616;2023-08-17T01:17:10;101877.25;;;15.47;91.09
71805;BME280;59654;52.216;5.616;2023-08-17T01:17:59;101869.25;;;15.46;90.47
71805;BME280;59654;52.216;5.616;2023-08-17T01:18:35;101873.00;;;15.42;90.54
71805;BME280;59654;52.216;5.616;2023-08-17T01:19:08;101860.72;;;15.35;91.08
71805;BME280;59654;52.216;5.616;2023-08-17T01:19:44;101868.94;;;15.32;91.69
71805;BME280;59654;52.216;5.616;2023-08-17T01:20:16;101881.69;;;15.27;91.80
71805;BME280;59654;52.216;5.616;2023-08-17T01:20:49;101871.41;;;15.16;92.41
71805;BME280;59654;52.216;5.616;2023-08-17T01:21:23;101868.06;;;15.09;92.98
71805;BME280;59654;52.216;5.616;2023-08-17T01:22:00;101869.06;;;15.07;92.66
71805;BME280;59654;52.216;5.616;2023-08-17T01:22:35;101867.38;;;15.04;92.71
71805;BME280;59654;52.216;5.616;2023-08-17T01:23:07;101868.47;;;15.00;93.25
71805;BME280;59654;52.216;5.616;2023-08-17T01:23:38;101864.03;;;14.99;93.00
71805;BME280;59654;52.216;5.616;2023-08-17T01:24:09;101868.56;;;14.97;93.72
71805;BME280;59654;52.216;5.616;2023-08-17T01:24:41;101865.06;;;14.95;93.36
71805;BME280;59654;52.216;5.616;2023-08-17T01:25:12;101864.13;;;14.96;93.60
71805;BME280;59654;52.216;5.616;2023-08-17T01:25:43;101865.06;;;14.95;93.35
71805;BME280;59654;52.216;5.616;2023-08-17T01:26:14;101869.63;;;14.93;93.24
71805;BME280;59654;52.216;5.616;2023-08-17T01:26:46;101865.19;;;14.92;93.90
71805;BME280;59654;52.216;5.616;2023-08-17T01:27:17;101869.69;;;14.92;94.69
71805;BME280;59654;52.216;5.616;2023-08-17T01:27:48;101864.38;;;14.90;94.26
71805;BME280;59654;52.216;5.616;2023-08-17T01:28:19;101862.81;;;14.85;93.81
71805;BME280;59654;52.216;5.616;2023-08-17T01:28:50;101861.13;;;14.82;94.27
71805;BME280;59654;52.216;5.616;2023-08-17T01:29:22;101864.75;;;14.81;94.34
71805;BME280;59654;52.216;5.616;2023-08-17T01:29:53;101866.63;;;14.79;94.44
71805;BME280;59654;52.216;5.616;2023-08-17T01:30:24;101865.84;;;14.75;94.80
71805;BME280;59654;52.216;5.616;2023-08-17T01:31:16;101867.84;;;14.70;94.44
71805;BME280;59654;52.216;5.616;2023-08-17T01:32:54;101872.47;;;14.67;94.73
71805;BME280;59654;52.216;5.616;2023-08-17T01:33:35;101865.44;;;14.63;94.73
71805;BME280;59654;52.216;5.616;2023-08-17T01:34:20;101866.28;;;14.65;95.15
71805;BME280;59654;52.216;5.616;2023-08-17T01:35:44;101864.38;;;14.68;95.30
71805;BME280;59654;52.216;5.616;2023-08-17T01:36:13;101868.72;;;14.71;94.72
71805;BME280;59654;52.216;5.616;2023-08-17T01:37:00;101866.97;;;14.70;95.14
71805;BME280;59654;52.216;5.616;2023-08-17T01:37:36;101859.94;;;14.67;95.63
71805;BME280;59654;52.216;5.616;2023-08-17T01:38:12;101866.03;;;14.71;95.35
71805;BME280;59654;52.216;5.616;2023-08-17T01:38:51;101866.13;;;14.69;95.41
71805;BME280;59654;52.216;5.616;2023-08-17T01:39:27;101862.41;;;14.72;96.03
71805;BME280;59654;52.216;5.616;2023-08-17T01:40:04;101861.47;;;14.73;94.76
71805;BME280;59654;52.216;5.616;2023-08-17T01:40:36;101866.78;;;14.74;94.99
71805;BME280;59654;52.216;5.616;2023-08-17T01:41:09;101872.06;;;14.77;95.26
71805;BME280;59654;52.216;5.616;2023-08-17T01:41:47;101871.06;;;14.80;95.36
71805;BME280;59654;52.216;5.616;2023-08-17T01:42:19;101871.94;;;14.80;95.46
71805;BME280;59654;52.216;5.616;2023-08-17T01:42:53;101866.50;;;14.82;94.69
71805;BME280;59654;52.216;5.616;2023-08-17T01:43:26;101871.66;;;14.87;94.54
71805;BME280;59654;52.216;5.616;2023-08-17T01:43:59;101869.84;;;14.87;93.85
71805;BME280;59654;52.216;5.616;2023-08-17T01:44:32;101871.50;;;14.91;94.02
71805;BME280;59654;52.216;5.616;2023-08-17T01:45:03;101876.88;;;14.91;93.78
71805;BME280;59654;52.216;5.616;2023-08-17T01:45:34;101871.50;;;14.91;94.61
71805;BME280;59654;52.216;5.616;2023-08-17T01:46:07;101877.69;;;14.93;94.56
71805;BME280;59654;52.216;5.616;2023-08-17T01:46:38;101868.69;;;14.94;95.05
71805;BME280;59654;52.216;5.616;2023-08-17T01:47:09;101873.19;;;14.94;94.66
71805;BME280;59654;52.216;5.616;2023-08-17T01:47:41;101871.50;;;14.91;94.36
71805;BME280;59654;52.216;5.616;2023-08-17T01:48:12;101864.25;;;14.93;94.71
71805;BME280;59654;52.216;5.616;2023-08-17T01:48:46;101866.00;;;14.94;94.08
71805;BME280;59654;52.216;5.616;2023-08-17T01:49:17;101873.06;;;14.97;94.16
71805;BME280;59654;52.216;5.616;2023-08-17T01:49:48;101869.41;;;14.99;94.81
71805;BME280;59654;52.216;5.616;2023-08-17T01:50:19;101872.09;;;14.99;94.23
71805;BME280;59654;52.216;5.616;2023-08-17T01:50:50;101864.75;;;15.03;94.23
71805;BME280;59654;52.216;5.616;2023-08-17T01:51:24;101868.25;;;15.05;94.35
71805;BME280;59654;52.216;5.616;2023-08-17T01:51:55;101871.81;;;15.05;94.30
71805;BME280;59654;52.216;5.616;2023-08-17T01:52:28;101869.94;;;15.07;93.55
71805;BME280;59654;52.216;5.616;2023-08-17T01:52:59;101865.31;;;15.11;93.54
71805;BME280;59654;52.216;5.616;2023-08-17T01:53:30;101875.06;;;15.13;93.85
71805;BME280;59654;52.216;5.616;2023-08-17T01:54:01;101870.53;;;15.15;92.73
71805;BME280;59654;52.216;5.616;2023-08-17T01:54:31;101877.59;;;15.18;92.91
71805;BME280;59654;52.216;5.616;2023-08-17T01:55:03;101862.31;;;15.18;93.37
71805;BME280;59654;52.216;5.616;2023-08-17T01:55:33;101854.94;;;15.24;93.47
71805;BME280;59654;52.216;5.616;2023-08-17T01:56:05;101854.00;;;15.25;93.19
71805;BME280;59654;52.216;5.616;2023-08-17T01:56:36;101867.44;;;15.25;92.55
71805;BME280;59654;52.216;5.616;2023-08-17T01:57:07;101861.94;;;15.28;92.71
71805;BME280;59654;52.216;5.616;2023-08-17T01:57:38;101865.56;;;15.27;92.52
71805;BME280;59654;52.216;5.616;2023-08-17T01:58:09;101865.50;;;15.28;92.69
71805;BME280;59654;52.216;5.616;2023-08-17T01:58:39;101865.44;;;15.30;92.03
71805;BME280;59654;52.216;5.616;2023-08-17T01:59:10;101861.88;;;15.29;91.76
71805;BME280;59654;52.216;5.616;2023-08-17T01:59:42;101873.44;;;15.31;92.38
71805;BME280;59654;52.216;5.616;2023-08-17T02:00:13;101862.75;;;15.30;92.49
71805;BME280;59654;52.216;5.616;2023-08-17T02:00:44;101865.38;;;15.31;92.54
71805;BME280;59654;52.216;5.616;2023-08-17T02:01:15;101864.50;;;15.31;92.03
71805;BME280;59654;52.216;5.616;2023-08-17T02:01:46;101861.81;;;15.31;91.93
71805;BME280;59654;52.216;5.616;2023-08-17T02:02:17;101863.81;;;15.26;92.05
71805;BME280;59654;52.216;5.616;2023-08-17T02:02:48;101864.63;;;15.28;92.89
71805;BME280;59654;52.216;5.616;2023-08-17T02:03:18;101863.75;;;15.27;92.91
71805;BME280;59654;52.216;5.616;2023-08-17T02:03:49;101862.88;;;15.27;92.02
71805;BME280;59654;52.216;5.616;2023-08-17T02:04:20;101871.88;;;15.26;92.77
71805;BME280;59654;52.216;5.616;2023-08-17T02:04:51;101867.50;;;15.23;92.08
71805;BME280;59654;52.216;5.616;2023-08-17T02:05:21;101864.88;;;15.22;92.68
71805;BME280;59654;52.216;5.616;2023-08-17T02:05:52;101867.50;;;15.23;92.30
71805;BME280;59654;52.216;5.616;2023-08-17T02:06:23;101867.56;;;15.22;92.37
71805;BME280;59654;52.216;5.616;2023-08-17T02:06:54;101869.25;;;15.24;92.74
71805;BME280;59654;52.216;5.616;2023-08-17T02:07:25;101872.06;;;15.21;91.72
71805;BME280;59654;52.216;5.616;2023-08-17T02:07:55;101866.69;;;15.21;92.61
71805;BME280;59654;52.216;5.616;2023-08-17T02:08:26;101866.63;;;15.23;92.87
71805;BME280;59654;52.216;5.616;2023-08-17T02:08:59;101866.63;;;15.23;92.57
71805;BME280;59654;52.216;5.616;2023-08-17T02:09:29;101873.88;;;15.21;92.33
71805;BME280;59654;52.216;5.616;2023-08-17T02:10:02;101867.63;;;15.20;93.16
71805;BME280;59654;52.216;5.616;2023-08-17T02:10:33;101870.38;;;15.18;92.95
71805;BME280;59654;52.216;5.616;2023-08-17T02:11:04;101863.19;;;15.19;93.20
71805;BME280;59654;52.216;5.616;2023-08-17T02:11:34;101865.81;;;15.21;92.99
71805;BME280;59654;52.216;5.616;2023-08-17T02:12:05;101856.88;;;15.20;92.62
71805;BME280;59654;52.216;5.616;2023-08-17T02:12:36;101860.59;;;15.17;92.15
71805;BME280;59654;52.216;5.616;2023-08-17T02:13:07;101874.91;;;15.18;92.50
71805;BME280;59654;52.216;5.616;2023-08-17T02:13:38;101866.75;;;15.19;92.83
71805;BME280;59654;52.216;5.616;2023-08-17T02:14:09;101866.69;;;15.21;92.73
71805;BME280;59654;52.216;5.616;2023-08-17T02:14:40;101863.19;;;15.19;92.64
71805;BME280;59654;52.216;5.616;2023-08-17T02:15:11;101865.88;;;15.19;92.90
71805;BME280;59654;52.216;5.616;2023-08-17T02:15:42;101861.47;;;15.18;92.00
71805;BME280;59654;52.216;5.616;2023-08-17T02:16:13;101862.31;;;15.18;92.43
71805;BME280;59654;52.216;5.616;2023-08-17T02:16:44;101861.53;;;15.16;92.49
71805;BME280;59654;52.216;5.616;2023-08-17T02:17:16;101855.13;;;15.19;92.79
71805;BME280;59654;52.216;5.616;2023-08-17T02:17:47;101861.38;;;15.19;92.48
71805;BME280;59654;52.216;5.616;2023-08-17T02:18:18;101862.31;;;15.18;92.63
71805;BME280;59654;52.216;5.616;2023-08-17T02:18:48;101857.16;;;15.14;92.77
71805;BME280;59654;52.216;5.616;2023-08-17T02:19:19;101866.09;;;15.14;92.77
71805;BME280;59654;52.216;5.616;2023-08-17T02:19:50;101867.84;;;15.15;93.01
71805;BME280;59654;52.216;5.616;2023-08-17T02:20:21;101861.38;;;15.19;93.01
71805;BME280;59654;52.216;5.616;2023-08-17T02:20:51;101857.75;;;15.21;92.64
71805;BME280;59654;52.216;5.616;2023-08-17T02:21:22;101855.22;;;15.17;91.75
71805;BME280;59654;52.216;5.616;2023-08-17T02:21:53;101851.72;;;15.15;92.11
71805;BME280;59654;52.216;5.616;2023-08-17T02:22:24;101863.34;;;15.16;92.07
71805;BME280;59654;52.216;5.616;2023-08-17T02:22:54;101851.72;;;15.15;92.16
71805;BME280;59654;52.216;5.616;2023-08-17T02:23:27;101858.91;;;15.15;92.14
71805;BME280;59654;52.216;5.616;2023-08-17T02:23:57;101858.03;;;15.14;92.28
71805;BME280;59654;52.216;5.616;2023-08-17T02:24:28;101857.28;;;15.11;92.55
71805;BME280;59654;52.216;5.616;2023-08-17T02:24:59;101857.31;;;15.09;92.25
71805;BME280;59654;52.216;5.616;2023-08-17T02:25:29;101858.31;;;15.07;92.36
71805;BME280;59654;52.216;5.616;2023-08-17T02:26:05;101846.75;;;15.05;92.54
71805;BME280;59654;52.216;5.616;2023-08-17T02:26:36;101858.44;;;15.04;92.88
71805;BME280;59654;52.216;5.616;2023-08-17T02:27:09;101854.09;;;15.01;93.34
71805;BME280;59654;52.216;5.616;2023-08-17T02:27:40;101849.66;;;15.00;93.71
71805;BME280;59654;52.216;5.616;2023-08-17T02:28:11;101855.03;;;15.00;92.77
71805;BME280;59654;52.216;5.616;2023-08-17T02:28:41;101857.66;;;15.02;93.11
71805;BME280;59654;52.216;5.616;2023-08-17T02:29:12;101853.28;;;14.99;92.93
71805;BME280;59654;52.216;5.616;2023-08-17T02:29:43;101858.50;;;15.02;93.66
71805;BME280;59654;52.216;5.616;2023-08-17T02:30:14;101859.53;;;15.00;93.21
71805;BME280;59654;52.216;5.616;2023-08-17T02:30:45;101848.78;;;15.00;93.75
71805;BME280;59654;52.216;5.616;2023-08-17T02:31:18;101847.09;;;14.97;93.68
71805;BME280;59654;52.216;5.616;2023-08-17T02:31:48;101850.72;;;14.96;94.62
71805;BME280;59654;52.216;5.616;2023-08-17T02:32:19;101854.28;;;14.97;94.26
71805;BME280;59654;52.216;5.616;2023-08-17T02:32:51;101846.34;;;14.94;94.08
71805;BME280;59654;52.216;5.616;2023-08-17T02:33:22;101850.72;;;14.96;93.69
71805;BME280;59654;52.216;5.616;2023-08-17T02:33:54;101849.13;;;14.91;93.85
71805;BME280;59654;52.216;5.616;2023-08-17T02:34:30;101851.88;;;14.89;94.44
71805;BME280;59654;52.216;5.616;2023-08-17T02:35:01;101853.75;;;14.87;93.97
71805;BME280;59654;52.216;5.616;2023-08-17T02:35:33;101849.47;;;14.83;94.02
71805;BME280;59654;52.216;5.616;2023-08-17T02:36:04;101853.03;;;14.83;94.65
71805;BME280;59654;52.216;5.616;2023-08-17T02:36:35;101846.91;;;14.80;94.40
71805;BME280;59654;52.216;5.616;2023-08-17T02:37:06;101848.75;;;14.78;93.91
71805;BME280;59654;52.216;5.616;2023-08-17T02:37:37;101852.31;;;14.78;94.93
71805;BME280;59654;52.216;5.616;2023-08-17T02:38:07;101846.91;;;14.80;94.90
71805;BME280;59654;52.216;5.616;2023-08-17T02:38:38;101846.03;;;14.79;94.75
71805;BME280;59654;52.216;5.616;2023-08-17T02:39:09;101850.50;;;14.79;94.68
71805;BME280;59654;52.216;5.616;2023-08-17T02:39:40;101842.44;;;14.79;94.10
71805;BME280;59654;52.216;5.616;2023-08-17T02:40:11;101846.91;;;14.80;94.95
71805;BME280;59654;52.216;5.616;2023-08-17T02:40:42;101845.03;;;14.82;94.30
71805;BME280;59654;52.216;5.616;2023-08-17T02:41:13;101841.56;;;14.78;94.39
71805;BME280;59654;52.216;5.616;2023-08-17T02:41:43;101844.38;;;14.75;94.73
71805;BME280;59654;52.216;5.616;2023-08-17T02:42:15;101844.44;;;14.74;94.99
71805;BME280;59654;52.216;5.616;2023-08-17T02:42:46;101848.16;;;14.70;95.04
71805;BME280;59654;52.216;5.616;2023-08-17T02:43:17;101844.56;;;14.71;95.24
71805;BME280;59654;52.216;5.616;2023-08-17T02:43:48;101849.13;;;14.69;95.22
71805;BME280;59654;52.216;5.616;2023-08-17T02:44:20;101842.91;;;14.68;94.93
71805;BME280;59654;52.216;5.616;2023-08-17T02:44:51;101843.81;;;14.67;94.76
71805;BME280;59654;52.216;5.616;2023-08-17T02:45:22;101837.69;;;14.64;95.18
71805;BME280;59654;52.216;5.616;2023-08-17T02:45:53;101843.97;;;14.63;95.66
71805;BME280;59654;52.216;5.616;2023-08-17T02:46:24;101834.06;;;14.65;95.82
71805;BME280;59654;52.216;5.616;2023-08-17T02:46:55;101842.22;;;14.62;95.62
71805;BME280;59654;52.216;5.616;2023-08-17T02:47:26;101842.13;;;14.65;94.93
71805;BME280;59654;52.216;5.616;2023-08-17T02:47:57;101832.31;;;14.64;94.99
71805;BME280;59654;52.216;5.616;2023-08-17T02:48:28;101834.06;;;14.65;95.21
71805;BME280;59654;52.216;5.616;2023-08-17T02:49:00;101834.03;;;14.66;95.22
71805;BME280;59654;52.216;5.616;2023-08-17T02:49:31;101832.31;;;14.64;94.98
71805;BME280;59654;52.216;5.616;2023-08-17T02:50:02;101841.25;;;14.64;94.58
71805;BME280;59654;52.216;5.616;2023-08-17T02:50:33;101837.59;;;14.67;95.15